Fishertown, PA (15539)

2:20 PM EDT on June 02, 2015 (GMT -0400)
Bedford County | | Change Station
CLOSE
Current Station
Airport
Location: Bedford County,
Elevation: 1161 ft
Nearby Weather Stations

Elev 1161 ft 40.08 °N, 78.50 °W | Updated 25 minutes ago

Rain
Rain
57 °F
Feels Like 57 °F
N
4
Wind Variable Wind from NE

Today
High -- | Low -- °F
--% Chance of Precip.
Yesterday
High -- | Low -- °F
Precip. -- in
5:46 AM 8:38 PM
Full, 100% visible
Pressure 30.14 in
Visibility 10.0 miles
Clouds Scattered Clouds 900 ft
Mostly Cloudy 1700 ft
Overcast 2800 ft
Dew Point 53 °F
Humidity 87%
Rainfall 1.00 in
Snow Depth Not available.
UV 3 out of 12
Pollen 3.50 out of 12
Air Quality Not available.
Flu Activity Sporadic
METAR KHMZ 021755Z AUTO 04003KT 10SM RA SCT009 BKN017 OVC028 14/12 A3014 RMK AO2 60030 T01410119 10142 20123

More Conditions Fewer Conditions

Pressure 30.14 in
Visibility 10.0 miles
Clouds Scattered Clouds 900 ft
Mostly Cloudy 1700 ft
Overcast 2800 ft
Dew Point 53 °F
Humidity 87%
Rainfall 1.00 in
Snow Depth Not available.
UV 3 out of 12
Pollen 3.50 out of 12
Air Quality Not available.
Flu Activity Sporadic
METAR KHMZ 021755Z AUTO 04003KT 10SM RA SCT009 BKN017 OVC028 14/12 A3014 RMK AO2 60030 T01410119 10142 20123

More Conditions Fewer Conditions

10-Day Weather Forecast

×

Almanac

Astronomy

Jun. 02, 2015 Rise Set
Actual Time
Civil Twilight
Nautical Twilight
Astronomical Twilight
Moon
Length of Visible Light
Length of Day
Tomorrow will be .
, % of the Moon is Illuminated

Today's Extremes

State Highs State Lows

Community

WunderPhotos

Upload Photos

1,825,995 photos uploaded!

WunderBlogs® & News

Nearby

Air Quality

  Air Quality AQ Index Pollutant
Not available.

Snow Depth

Station Depth Elevation

Earthquake Activity

City Distance Mag. Time & Date
Minimum magnitude displayed is 2.5.

Coastal Water Temperatures

Place Temperature

Stations

Nearby Weather Stations

Station Location Temp. Windchill Dew Point Humidity Wind Precip. Elev Updated Type